KSBP

San Luis County Regional Airport

San Luis Obispo, California, USA
METAR KSBP 231205Z AUTO 00000KT 10SM BKN006 09/08 A2994 RMK AO2 T00940083
Observed Flight Rules
Oct-23 @ 12:05 UTC (26 minutes ago) Instrument Flight Rules
Visibility Clouds
10 miles
  • Broken at 600' AGL
Temperatures Readings
Current 9°C / 48°F
Dewpoint 8°C / 46°F
Humidity 94%
Altimeter 29.94" Hg
Pressure 1014 hPa
Elevation 59
METAR KSBP 231205Z AUTO 00000KT 10SM BKN006 09/08 A2994 RMK AO2 T00940083
Observed Flight Rules
Oct-23 @ 12:05 UTC
(26 minutes ago)
IFR
Clouds
  • Broken at 600' AGL
Temperature Dewpoint
9°C / 48°F 8°C / 46°F
Humidity Altimeter Pressure
94% 29.94" Hg 1014 hPa